KSJC

Norman Y Mineta San Jose International Airport

San Jose, California, USA
METAR KSJC 190853Z AUTO 00000KT 10SM CLR 13/11 A2990 RMK AO2 SLP125 T01280106 56002
Observed Flight Rules
Sep-19 @ 08:53 UTC (11 minutes ago) Visual Flight Rules
Visibility Clouds
10 miles
  • Clear skies
Temperatures Readings
Current 13°C / 55°F
Dewpoint 11°C / 52°F
Humidity 88%
Altimeter 29.9" Hg
Pressure 1012.5 hPa
Elevation 24
METAR KSJC 190853Z AUTO 00000KT 10SM CLR 13/11 A2990 RMK AO2 SLP125 T01280106 56002
Observed Flight Rules
Sep-19 @ 08:53 UTC
(11 minutes ago)
VFR
Clouds
  • Clear skies
Temperature Dewpoint
13°C / 55°F 11°C / 52°F
Humidity Altimeter Pressure
88% 29.9" Hg 1012.5 hPa